createdAt,value
2023-05-05T00:01:06.160Z,21.54
2023-05-05T00:03:33.547Z,21.68
2023-05-05T00:05:59.979Z,21.49
2023-05-05T00:08:26.537Z,20.95
2023-05-05T00:10:53.511Z,21.41
2023-05-05T00:13:20.918Z,21.33
2023-05-05T00:15:49.493Z,21.48
2023-05-05T00:18:17.104Z,21.35
2023-05-05T00:20:44.407Z,20.87
2023-05-05T00:23:10.874Z,21.12
2023-05-05T00:25:37.436Z,20.94
2023-05-05T00:28:04.014Z,20.28
2023-05-05T00:30:30.619Z,20.85
2023-05-05T00:32:57.211Z,20.98
2023-05-05T00:35:23.711Z,21.11
2023-05-05T00:37:50.080Z,21.21
2023-05-05T00:40:18.350Z,21.12
2023-05-05T00:42:52.266Z,21.16
2023-05-05T00:45:19.780Z,21.31
2023-05-05T00:47:52.713Z,21.31
2023-05-05T00:50:25.212Z,20.88
2023-05-05T00:52:55.994Z,20.71
2023-05-05T00:55:22.713Z,21.08
2023-05-05T00:57:49.715Z,20.92
2023-05-05T01:00:16.691Z,21.35
2023-05-05T01:02:44.159Z,21.19
2023-05-05T01:05:11.502Z,21.36
2023-05-05T01:07:41.660Z,21.09
2023-05-05T01:10:29.897Z,21.25
2023-05-05T01:13:16.768Z,21.11
2023-05-05T01:15:53.321Z,21.02
2023-05-05T01:18:32.129Z,20.87
2023-05-05T01:20:58.438Z,21.07
2023-05-05T01:23:47.382Z,20.74
2023-05-05T01:26:16.771Z,21.04
2023-05-05T01:29:02.977Z,20.99
2023-05-05T01:31:38.326Z,20.95
2023-05-05T01:34:08.468Z,20.80
2023-05-05T01:36:42.152Z,20.71
2023-05-05T01:39:14.560Z,20.20
2023-05-05T01:41:45.019Z,20.51
2023-05-05T01:44:14.522Z,20.50
2023-05-05T01:46:40.973Z,20.45
2023-05-05T01:49:09.888Z,20.63
2023-05-05T01:51:37.566Z,20.56
2023-05-05T01:54:10.295Z,20.52
2023-05-05T01:56:40.042Z,20.64
2023-05-05T01:59:07.693Z,20.42
2023-05-05T02:01:37.471Z,20.30
2023-05-05T02:04:07.070Z,20.49
2023-05-05T02:06:35.038Z,20.14
2023-05-05T02:09:03.456Z,19.75
2023-05-05T02:11:30.040Z,20.28
2023-05-05T02:13:56.825Z,20.32
2023-05-05T02:16:25.073Z,20.17
2023-05-05T02:18:53.435Z,20.16
2023-05-05T02:21:20.594Z,20.19
2023-05-05T02:23:51.515Z,19.89
2023-05-05T02:26:21.592Z,20.27
2023-05-05T02:29:03.850Z,20.24
2023-05-05T02:31:33.039Z,20.13
2023-05-05T02:34:04.117Z,20.05
2023-05-05T02:36:33.529Z,19.93
2023-05-05T02:39:06.361Z,20.04
2023-05-05T02:41:36.145Z,19.43
2023-05-05T02:44:04.252Z,20.11
2023-05-05T02:46:31.285Z,19.56
2023-05-05T02:48:59.597Z,20.10
2023-05-05T02:51:26.130Z,20.24
2023-05-05T02:53:52.490Z,20.20
2023-05-05T02:56:37.801Z,20.19
2023-05-05T02:59:14.431Z,20.00
2023-05-05T03:02:14.780Z,19.73
2023-05-05T03:05:09.912Z,19.85
2023-05-05T03:07:45.672Z,19.94
2023-05-05T03:10:20.089Z,19.89
2023-05-05T03:12:49.259Z,19.70
2023-05-05T03:15:19.724Z,19.47
2023-05-05T03:17:46.568Z,19.40
2023-05-05T03:20:14.532Z,19.24
2023-05-05T03:22:41.031Z,19.05
2023-05-05T03:25:07.972Z,19.03
2023-05-05T03:27:34.320Z,18.77
2023-05-05T03:30:00.997Z,18.50
2023-05-05T03:32:27.444Z,18.70
2023-05-05T03:34:53.837Z,18.50
2023-05-05T03:37:20.224Z,18.14
2023-05-05T03:39:46.607Z,18.54
2023-05-05T03:42:12.991Z,17.89
2023-05-05T03:44:39.339Z,18.49
2023-05-05T03:47:05.720Z,18.48
2023-05-05T03:49:32.074Z,18.55
2023-05-05T03:51:58.425Z,18.73
2023-05-05T03:54:24.778Z,18.64
2023-05-05T03:56:51.166Z,18.71
2023-05-05T03:59:17.651Z,18.58
2023-05-05T04:01:46.500Z,18.68
2023-05-05T04:04:12.924Z,18.25
2023-05-05T04:06:39.377Z,18.42
2023-05-05T04:09:06.052Z,18.45
2023-05-05T04:11:32.705Z,18.67
2023-05-05T04:13:59.034Z,18.67
2023-05-05T04:16:25.924Z,18.31
2023-05-05T04:18:52.408Z,18.70
2023-05-05T04:21:18.783Z,18.51
2023-05-05T04:23:45.134Z,17.94
2023-05-05T04:26:11.583Z,17.97
2023-05-05T04:28:37.893Z,18.32
2023-05-05T04:31:05.072Z,17.91
2023-05-05T04:33:31.624Z,18.28
2023-05-05T04:35:58.351Z,18.28
2023-05-05T04:38:24.865Z,18.50
2023-05-05T04:40:51.221Z,18.04
2023-05-05T04:43:17.555Z,18.11
2023-05-05T04:45:55.354Z,18.56
2023-05-05T04:48:21.760Z,18.47
2023-05-05T04:50:48.178Z,18.47
2023-05-05T04:53:14.680Z,18.50
2023-05-05T04:55:41.268Z,18.60
2023-05-05T04:58:07.674Z,18.19
2023-05-05T05:00:36.081Z,18.10
2023-05-05T05:03:02.976Z,18.56
2023-05-05T05:05:29.442Z,18.60
2023-05-05T05:07:55.965Z,18.34
2023-05-05T05:10:22.322Z,18.50
2023-05-05T05:12:48.732Z,18.86
2023-05-05T05:15:15.227Z,18.81
2023-05-05T05:17:41.620Z,18.78
2023-05-05T05:20:09.124Z,18.75
2023-05-05T05:22:38.177Z,18.40
2023-05-05T05:25:04.932Z,18.62
2023-05-05T05:27:31.279Z,18.78
2023-05-05T05:29:57.786Z,18.37
2023-05-05T05:32:24.158Z,18.33
2023-05-05T05:34:50.934Z,18.54
2023-05-05T05:37:17.385Z,18.70
2023-05-05T05:39:43.892Z,18.77
2023-05-05T05:42:10.252Z,18.98
2023-05-05T05:44:36.574Z,18.74
2023-05-05T05:47:02.951Z,18.87
2023-05-05T05:49:29.270Z,18.88
2023-05-05T05:51:55.866Z,19.35
2023-05-05T05:54:22.209Z,19.51
2023-05-05T05:56:48.521Z,19.48
2023-05-05T05:59:14.866Z,19.55
2023-05-05T06:01:41.262Z,19.52
2023-05-05T06:04:07.796Z,19.65
2023-05-05T06:06:34.329Z,19.65
2023-05-05T06:09:00.864Z,19.14
2023-05-05T06:11:27.210Z,20.04
2023-05-05T06:13:53.528Z,19.80
2023-05-05T06:16:19.974Z,20.09
2023-05-05T06:18:46.856Z,19.69
2023-05-05T06:21:13.430Z,19.88
2023-05-05T06:23:39.871Z,20.05
2023-05-05T06:26:06.347Z,19.85
2023-05-05T06:28:32.746Z,19.72
2023-05-05T06:30:59.369Z,20.17
2023-05-05T06:33:25.789Z,20.20
2023-05-05T06:35:52.708Z,20.36
2023-05-05T06:38:19.124Z,20.56
2023-05-05T06:40:48.558Z,20.61
2023-05-05T06:43:14.904Z,20.11
2023-05-05T06:45:43.688Z,20.13
2023-05-05T06:48:10.238Z,19.96
2023-05-05T06:50:36.569Z,20.46
2023-05-05T06:53:02.914Z,20.48
2023-05-05T06:55:29.318Z,20.37
2023-05-05T06:57:55.887Z,19.70
2023-05-05T07:00:23.019Z,20.62
2023-05-05T07:02:49.837Z,20.74
2023-05-05T07:05:16.514Z,20.69
2023-05-05T07:07:55.190Z,20.90
2023-05-05T07:10:23.107Z,19.63
2023-05-05T07:12:50.526Z,20.10
2023-05-05T07:15:27.503Z,21.04
2023-05-05T07:17:55.527Z,19.97
2023-05-05T07:20:21.939Z,20.15
2023-05-05T07:22:48.385Z,21.03
2023-05-05T07:25:14.748Z,20.31
2023-05-05T07:27:41.256Z,20.59
2023-05-05T07:30:13.141Z,21.22
2023-05-05T07:32:41.964Z,21.20
2023-05-05T07:35:08.843Z,21.05
2023-05-05T07:37:35.240Z,20.52
2023-05-05T07:40:01.614Z,21.12
2023-05-05T07:42:27.948Z,20.80
2023-05-05T07:44:55.001Z,21.38
2023-05-05T07:47:21.518Z,20.95
2023-05-05T07:49:47.970Z,21.84
2023-05-05T07:52:14.384Z,21.76
2023-05-05T07:54:42.294Z,21.78
2023-05-05T07:57:08.768Z,21.45
2023-05-05T07:59:35.264Z,21.25
2023-05-05T08:02:01.672Z,21.58
2023-05-05T08:04:28.108Z,21.88
2023-05-05T08:06:54.596Z,21.57
2023-05-05T08:09:21.049Z,21.60
2023-05-05T08:11:47.484Z,21.84
2023-05-05T08:14:15.040Z,21.74
2023-05-05T08:16:41.406Z,21.91
2023-05-05T08:19:17.686Z,21.78
2023-05-05T08:21:51.597Z,22.06
2023-05-05T08:24:17.977Z,22.09
2023-05-05T08:26:44.322Z,22.36
2023-05-05T08:29:10.864Z,22.63
2023-05-05T08:31:37.236Z,22.89
2023-05-05T08:34:07.128Z,22.95
2023-05-05T08:36:33.775Z,23.27
2023-05-05T08:39:00.208Z,23.12
2023-05-05T08:41:27.993Z,23.68
2023-05-05T08:43:54.575Z,23.34
2023-05-05T08:46:21.696Z,23.65
2023-05-05T08:48:48.671Z,23.88
2023-05-05T08:51:19.670Z,23.76
2023-05-05T08:53:55.799Z,23.87
2023-05-05T08:56:25.787Z,23.23
2023-05-05T08:58:52.684Z,23.71
2023-05-05T09:01:19.909Z,24.04
2023-05-05T09:03:46.818Z,24.10
2023-05-05T09:06:13.553Z,24.27
2023-05-05T09:08:41.078Z,24.82
2023-05-05T09:11:07.542Z,24.62
2023-05-05T09:13:33.975Z,24.80
2023-05-05T09:16:00.610Z,24.85
2023-05-05T09:18:33.422Z,25.02
2023-05-05T09:21:03.859Z,24.79
2023-05-05T09:23:30.350Z,24.96
2023-05-05T09:26:05.356Z,25.02
2023-05-05T09:28:32.348Z,25.10
2023-05-05T09:31:13.485Z,25.15
2023-05-05T09:33:39.883Z,24.35
2023-05-05T09:36:06.682Z,24.30
2023-05-05T09:38:35.026Z,24.59
2023-05-05T09:41:05.506Z,24.78
2023-05-05T09:43:50.047Z,24.52
2023-05-05T09:46:19.617Z,25.15
2023-05-05T09:48:46.427Z,24.93
2023-05-05T09:51:12.932Z,24.68
2023-05-05T09:53:42.252Z,24.65
2023-05-05T09:56:12.120Z,25.41
2023-05-05T09:58:38.527Z,25.49
2023-05-05T10:01:05.496Z,25.03
2023-05-05T10:03:32.555Z,25.11
2023-05-05T10:06:01.021Z,25.01
2023-05-05T10:08:31.998Z,24.67
2023-05-05T10:11:06.253Z,23.96
2023-05-05T10:13:36.486Z,24.84
2023-05-05T10:16:04.670Z,24.15
2023-05-05T10:18:32.396Z,24.70
2023-05-05T10:21:01.216Z,24.10
2023-05-05T10:23:54.076Z,24.14
2023-05-05T10:26:23.083Z,24.26
2023-05-05T10:28:56.542Z,24.60
2023-05-05T10:31:47.890Z,24.53
2023-05-05T10:34:27.031Z,24.32
2023-05-05T10:36:55.143Z,24.30
2023-05-05T10:39:23.763Z,24.01
2023-05-05T10:41:51.819Z,23.76
2023-05-05T10:44:19.304Z,23.87
2023-05-05T10:46:46.604Z,23.13
2023-05-05T10:49:23.884Z,23.46
2023-05-05T10:52:09.405Z,22.95
2023-05-05T10:54:52.248Z,23.15
2023-05-05T10:57:23.752Z,23.73
2023-05-05T10:59:50.235Z,23.68
2023-05-05T11:02:32.584Z,23.65
2023-05-05T11:05:06.953Z,23.22
2023-05-05T11:07:34.420Z,22.69
2023-05-05T11:10:05.812Z,21.97
2023-05-05T11:12:53.474Z,21.55
2023-05-05T11:15:29.086Z,21.01
2023-05-05T11:17:56.341Z,20.83
2023-05-05T11:20:34.995Z,21.23
2023-05-05T11:23:04.806Z,21.53
2023-05-05T11:25:34.506Z,21.69
2023-05-05T11:28:14.579Z,21.92
2023-05-05T11:31:01.160Z,22.23
2023-05-05T11:33:30.618Z,22.36
2023-05-05T11:36:05.045Z,22.31
2023-05-05T11:38:47.457Z,22.57
2023-05-05T11:41:19.868Z,22.74
2023-05-05T11:43:46.405Z,22.87
2023-05-05T11:46:14.398Z,22.94
2023-05-05T11:48:48.890Z,23.31
2023-05-05T11:51:16.732Z,23.88
2023-05-05T11:53:48.797Z,24.16
2023-05-05T11:56:20.458Z,24.32
2023-05-05T11:58:47.981Z,24.83
2023-05-05T12:01:15.161Z,25.37
2023-05-05T12:03:42.268Z,25.61
2023-05-05T12:06:08.867Z,26.09
2023-05-05T12:08:36.755Z,26.26
2023-05-05T12:11:10.598Z,27.49
2023-05-05T12:13:37.329Z,26.76
2023-05-05T12:16:14.817Z,25.74
2023-05-05T12:18:42.220Z,25.38
2023-05-05T12:21:15.613Z,24.92
2023-05-05T12:23:42.045Z,24.79
2023-05-05T12:26:22.631Z,23.94
2023-05-05T12:28:49.042Z,23.84
2023-05-05T12:31:15.864Z,23.81
2023-05-05T12:33:42.849Z,23.96
2023-05-05T12:36:09.300Z,24.31
2023-05-05T12:38:36.262Z,24.88
2023-05-05T12:41:02.962Z,24.42
2023-05-05T12:43:31.433Z,24.74
2023-05-05T12:46:12.194Z,24.95
2023-05-05T12:48:40.472Z,24.97
2023-05-05T12:51:17.755Z,25.18
2023-05-05T12:53:45.977Z,25.21
2023-05-05T12:56:35.872Z,25.54
2023-05-05T12:59:07.649Z,24.89
2023-05-05T13:01:53.221Z,25.63
2023-05-05T13:04:21.777Z,25.82
2023-05-05T13:06:49.401Z,25.01
2023-05-05T13:09:30.360Z,24.41
2023-05-05T13:11:56.832Z,24.61
2023-05-05T13:14:23.541Z,24.07
2023-05-05T13:16:50.059Z,24.45
2023-05-05T13:19:17.107Z,23.46
2023-05-05T13:21:43.461Z,24.38
2023-05-05T13:24:23.611Z,24.38
2023-05-05T13:26:53.053Z,23.51
2023-05-05T13:29:19.598Z,23.74
2023-05-05T13:31:46.297Z,22.91
2023-05-05T13:34:12.793Z,23.34
2023-05-05T13:36:39.173Z,23.25
2023-05-05T13:39:05.713Z,23.23
2023-05-05T13:41:32.080Z,23.33
2023-05-05T13:44:12.573Z,23.33
2023-05-05T13:46:39.103Z,23.53
2023-05-05T13:49:05.694Z,22.91
2023-05-05T13:51:32.900Z,23.45
2023-05-05T13:53:59.252Z,22.40
2023-05-05T13:56:27.608Z,22.30
2023-05-05T13:58:54.244Z,22.59
2023-05-05T14:01:20.707Z,21.73
2023-05-05T14:03:47.253Z,21.51
2023-05-05T14:06:13.663Z,22.51
2023-05-05T14:08:40.093Z,22.09
2023-05-05T14:11:06.683Z,22.41
2023-05-05T14:13:33.088Z,21.49
2023-05-05T14:15:59.750Z,21.98
2023-05-05T14:18:26.201Z,21.67
2023-05-05T14:20:52.719Z,21.68
2023-05-05T14:23:19.071Z,21.21
2023-05-05T14:25:45.465Z,20.63
2023-05-05T14:28:11.862Z,20.45
2023-05-05T14:30:39.660Z,19.07
2023-05-05T14:33:06.138Z,19.26
2023-05-05T14:35:32.558Z,19.04
2023-05-05T14:37:58.877Z,19.33
2023-05-05T14:40:25.251Z,19.33
2023-05-05T14:42:52.299Z,19.25
2023-05-05T14:45:18.713Z,18.69
2023-05-05T14:47:45.169Z,18.59
2023-05-05T14:50:11.687Z,19.47
2023-05-05T14:52:40.166Z,19.49
2023-05-05T14:55:07.321Z,19.54
2023-05-05T14:57:33.938Z,19.33
2023-05-05T15:00:00.331Z,19.22
2023-05-05T15:02:26.730Z,19.16
2023-05-05T15:04:53.159Z,19.32
2023-05-05T15:07:20.493Z,19.42
2023-05-05T15:09:46.933Z,20.35
2023-05-05T15:12:13.376Z,20.62
2023-05-05T15:14:39.898Z,20.59
2023-05-05T15:17:06.509Z,21.05
2023-05-05T15:19:32.864Z,21.99
2023-05-05T15:21:59.252Z,22.11
2023-05-05T15:24:26.198Z,22.07
2023-05-05T15:26:52.548Z,22.74
2023-05-05T15:29:18.919Z,23.27
2023-05-05T15:31:45.660Z,23.46
2023-05-05T15:34:12.098Z,23.82
2023-05-05T15:36:38.473Z,23.43
2023-05-05T15:39:04.899Z,23.65
2023-05-05T15:41:33.874Z,23.27
2023-05-05T15:44:00.791Z,23.08
2023-05-05T15:46:27.345Z,22.78
2023-05-05T15:48:53.769Z,22.25
2023-05-05T15:51:20.158Z,22.91
2023-05-05T15:53:47.147Z,22.57
2023-05-05T15:56:13.606Z,22.50
2023-05-05T15:58:40.050Z,22.10
2023-05-05T16:01:06.558Z,21.79
2023-05-05T16:03:33.037Z,21.41
2023-05-05T16:05:59.573Z,20.35
2023-05-05T16:08:25.971Z,19.81
2023-05-05T16:10:52.592Z,20.32
2023-05-05T16:13:20.192Z,20.75
2023-05-05T16:15:47.281Z,20.68
2023-05-05T16:18:31.078Z,20.24
2023-05-05T16:20:57.415Z,20.65
2023-05-05T16:23:24.044Z,19.91
2023-05-05T16:25:50.367Z,20.09
2023-05-05T16:28:16.729Z,19.90
2023-05-05T16:30:53.196Z,19.85
2023-05-05T16:33:19.568Z,18.85
2023-05-05T16:35:46.274Z,18.94
2023-05-05T16:38:13.306Z,18.40
2023-05-05T16:40:40.541Z,18.53
2023-05-05T16:43:06.968Z,18.41
2023-05-05T16:45:33.440Z,18.88
2023-05-05T16:47:59.824Z,18.51
2023-05-05T16:50:26.269Z,17.78
2023-05-05T16:52:52.717Z,18.10
2023-05-05T16:55:19.085Z,17.85
2023-05-05T16:57:47.134Z,18.21
2023-05-05T17:00:14.476Z,17.74
2023-05-05T17:03:41.314Z,18.00
2023-05-05T17:06:07.896Z,18.53
2023-05-05T17:08:35.304Z,18.43
2023-05-05T17:11:05.823Z,18.78
2023-05-05T17:13:32.210Z,18.45
2023-05-05T17:15:58.715Z,17.83
2023-05-05T17:18:25.906Z,18.51
2023-05-05T17:20:52.641Z,18.16
2023-05-05T17:23:21.239Z,18.81
2023-05-05T17:25:47.671Z,18.52
2023-05-05T17:28:17.161Z,18.76
2023-05-05T17:30:43.810Z,18.79
2023-05-05T17:33:10.498Z,18.82
2023-05-05T17:35:37.562Z,18.60
2023-05-05T17:38:03.993Z,18.32
2023-05-05T17:40:30.352Z,19.23
2023-05-05T17:42:56.698Z,19.40
2023-05-05T17:45:25.803Z,19.24
2023-05-05T17:47:53.461Z,19.02
2023-05-05T17:50:19.804Z,19.07
2023-05-05T17:52:46.488Z,19.46
2023-05-05T17:55:13.027Z,18.95
2023-05-05T17:57:39.606Z,18.57
2023-05-05T18:00:07.067Z,19.11
2023-05-05T18:02:36.877Z,19.16
2023-05-05T18:05:04.324Z,18.53
2023-05-05T18:07:30.891Z,19.10
2023-05-05T18:09:58.565Z,18.89
2023-05-05T18:12:27.440Z,19.55
2023-05-05T18:15:00.486Z,19.06
2023-05-05T18:17:28.327Z,19.16
2023-05-05T18:19:54.846Z,18.90
2023-05-05T18:22:21.768Z,19.15
2023-05-05T18:24:50.587Z,19.18
2023-05-05T18:27:17.027Z,18.74
2023-05-05T18:29:43.432Z,19.55
2023-05-05T18:32:09.779Z,18.64
2023-05-05T18:34:38.486Z,19.71
2023-05-05T18:37:04.862Z,18.95
2023-05-05T18:39:33.721Z,18.80
2023-05-05T18:42:00.388Z,18.90
2023-05-05T18:44:26.866Z,19.38
2023-05-05T18:46:55.640Z,18.82
2023-05-05T18:49:23.116Z,19.41
2023-05-05T18:51:49.537Z,18.43
2023-05-05T18:54:15.924Z,19.45
2023-05-05T18:56:42.321Z,18.57
2023-05-05T18:59:08.751Z,18.65
2023-05-05T19:01:35.298Z,18.85
2023-05-05T19:04:01.751Z,18.82
2023-05-05T19:06:49.741Z,18.55
2023-05-05T19:09:17.536Z,18.16
2023-05-05T19:11:46.454Z,18.77
2023-05-05T19:14:12.806Z,18.40
2023-05-05T19:16:39.213Z,18.28
2023-05-05T19:19:05.676Z,18.40
2023-05-05T19:21:32.141Z,18.20
2023-05-05T19:24:01.119Z,18.78
2023-05-05T19:26:27.742Z,18.61
2023-05-05T19:28:54.140Z,18.74
2023-05-05T19:31:31.081Z,17.98
2023-05-05T19:34:00.773Z,18.20
2023-05-05T19:36:27.919Z,18.56
2023-05-05T19:38:55.814Z,18.61
2023-05-05T19:41:22.235Z,18.32
2023-05-05T19:43:49.836Z,18.32
2023-05-05T19:46:17.093Z,18.00
2023-05-05T19:48:44.021Z,18.34
2023-05-05T19:51:10.540Z,17.37
2023-05-05T19:53:36.978Z,17.85
2023-05-05T19:56:04.707Z,17.57
2023-05-05T19:58:31.496Z,17.14
2023-05-05T20:00:57.980Z,17.16
2023-05-05T20:03:26.983Z,18.19
2023-05-05T20:05:53.452Z,17.48
2023-05-05T20:08:21.069Z,17.22
2023-05-05T20:10:49.096Z,16.97
2023-05-05T20:13:16.153Z,16.91
2023-05-05T20:15:47.050Z,17.89
2023-05-05T20:18:16.194Z,16.99
2023-05-05T20:20:42.722Z,17.48
2023-05-05T20:23:09.699Z,17.27
2023-05-05T20:25:42.286Z,17.38
2023-05-05T20:28:15.320Z,17.86
2023-05-05T20:30:41.800Z,17.36
2023-05-05T20:33:08.504Z,17.91
2023-05-05T20:35:35.148Z,17.00
2023-05-05T20:38:03.704Z,17.30
2023-05-05T20:40:33.719Z,17.89
2023-05-05T20:43:05.988Z,17.14
2023-05-05T20:45:34.434Z,17.86
2023-05-05T20:48:03.665Z,17.18
2023-05-05T20:50:30.276Z,17.82
2023-05-05T20:52:59.432Z,17.04
2023-05-05T20:55:26.217Z,16.71
2023-05-05T20:57:52.770Z,17.68
2023-05-05T21:00:19.527Z,17.34
2023-05-05T21:02:49.867Z,17.14
2023-05-05T21:05:19.020Z,17.41
2023-05-05T21:07:49.110Z,16.63
2023-05-05T21:10:17.965Z,17.47
2023-05-05T21:13:17.925Z,17.27
2023-05-05T21:15:51.383Z,16.96
2023-05-05T21:18:39.477Z,16.66
2023-05-05T21:21:30.723Z,17.61
2023-05-05T21:24:01.984Z,17.38
2023-05-05T21:26:37.125Z,16.57
2023-05-05T21:29:14.850Z,16.62
2023-05-05T21:31:43.584Z,17.50
2023-05-05T21:34:28.713Z,16.86
2023-05-05T21:36:59.490Z,16.40
2023-05-05T21:39:35.195Z,16.48
2023-05-05T21:42:05.258Z,16.41
2023-05-05T21:44:37.074Z,16.74
2023-05-05T21:47:13.797Z,16.36
2023-05-05T21:49:51.942Z,16.30
2023-05-05T21:52:20.761Z,16.26
2023-05-05T21:54:49.697Z,16.64
2023-05-05T21:57:34.085Z,16.92
2023-05-05T22:00:04.314Z,16.04
2023-05-05T22:02:33.408Z,16.29
2023-05-05T22:05:02.463Z,16.79
2023-05-05T22:07:41.902Z,16.36
2023-05-05T22:10:14.304Z,16.68
2023-05-05T22:12:41.214Z,16.36
2023-05-05T22:15:08.612Z,16.44
2023-05-05T22:17:44.137Z,16.28
2023-05-05T22:20:14.094Z,16.53
2023-05-05T22:22:44.108Z,16.74
2023-05-05T22:25:17.300Z,16.21
2023-05-05T22:27:44.189Z,16.13
2023-05-05T22:30:11.406Z,16.64
2023-05-05T22:32:40.171Z,16.83
2023-05-05T22:35:07.424Z,16.49
2023-05-05T22:37:40.711Z,16.57
2023-05-05T22:40:09.952Z,16.30
2023-05-05T22:42:36.872Z,16.66
2023-05-05T22:45:03.863Z,15.88
2023-05-05T22:47:40.419Z,16.17
2023-05-05T22:50:08.215Z,16.20
2023-05-05T22:52:37.043Z,16.82
2023-05-05T22:55:10.039Z,17.06
2023-05-05T22:57:36.876Z,16.44
2023-05-05T23:00:05.489Z,16.15
2023-05-05T23:02:36.689Z,16.02
2023-05-05T23:05:09.285Z,17.03
2023-05-05T23:07:42.052Z,16.36
2023-05-05T23:10:16.132Z,16.34
2023-05-05T23:12:50.290Z,15.89
2023-05-05T23:15:17.264Z,15.93
2023-05-05T23:17:45.895Z,16.84
2023-05-05T23:20:23.146Z,15.82
2023-05-05T23:22:52.036Z,15.91
2023-05-05T23:25:20.079Z,16.61
2023-05-05T23:27:58.295Z,15.88
2023-05-05T23:30:27.241Z,16.86
2023-05-05T23:33:02.554Z,15.95
2023-05-05T23:35:32.152Z,16.29
2023-05-05T23:38:35.569Z,15.84
2023-05-05T23:40:48.550Z,16.14
2023-05-05T23:43:15.215Z,16.23
2023-05-05T23:45:45.325Z,15.84
2023-05-05T23:48:13.477Z,15.75
2023-05-05T23:50:48.744Z,15.52
2023-05-05T23:53:20.898Z,15.73
2023-05-05T23:55:47.529Z,15.69
2023-05-05T23:59:12.335Z,15.80
